sensor_id;sensor_type;location;lat;lon;timestamp;pressure;altitude;pressure_sealevel;temperature;humidity
6837;BME280;3456;42.136;24.736;2023-10-19T20:52:44;150143.28;;;13.62;100.00
6837;BME280;3456;42.136;24.736;2023-10-19T20:55:13;150143.28;;;13.62;100.00
6837;BME280;3456;42.136;24.736;2023-10-19T20:57:53;150153.41;;;13.66;100.00
6837;BME280;3456;42.136;24.736;2023-10-19T21:00:26;150091.38;;;13.42;100.00
6837;BME280;3456;42.136;24.736;2023-10-19T21:03:06;150125.53;;;13.55;100.00
6837;BME280;3456;42.136;24.736;2023-10-19T21:05:35;150087.56;;;13.40;100.00
6837;BME280;3456;42.136;24.736;2023-10-19T21:08:14;150005.19;;;13.08;100.00
6837;BME280;3456;42.136;24.736;2023-10-19T21:10:43;149927.91;;;12.77;100.00
6837;BME280;3456;42.136;24.736;2023-10-19T21:13:12;149912.72;;;12.71;100.00
6837;BME280;3456;42.136;24.736;2023-10-19T21:15:41;149935.50;;;12.80;100.00
6837;BME280;3456;42.136;24.736;2023-10-19T21:18:10;149858.31;;;12.50;100.00
6837;BME280;3456;42.136;24.736;2023-10-19T21:20:38;149900.03;;;12.66;100.00
6837;BME280;3456;42.136;24.736;2023-10-19T21:23:10;149925.41;;;12.76;100.00
6837;BME280;3456;42.136;24.736;2023-10-19T21:25:38;149892.44;;;12.63;100.00
6837;BME280;3456;42.136;24.736;2023-10-19T21:28:07;149910.22;;;12.70;100.00
6837;BME280;3456;42.136;24.736;2023-10-19T21:30:36;149958.31;;;12.89;100.00
6837;BME280;3456;42.136;24.736;2023-10-19T21:33:05;149960.81;;;12.90;100.00
6837;BME280;3456;42.136;24.736;2023-10-19T21:35:34;149944.41;;;12.84;100.00
6837;BME280;3456;42.136;24.736;2023-10-19T21:38:05;149806.38;;;12.29;100.00
6837;BME280;3456;42.136;24.736;2023-10-19T21:40:40;149893.72;;;12.64;100.00
6837;BME280;3456;42.136;24.736;2023-10-19T21:43:09;149933.00;;;12.79;100.00
6837;BME280;3456;42.136;24.736;2023-10-19T21:45:38;149917.81;;;12.73;100.00
6837;BME280;3456;42.136;24.736;2023-10-19T21:48:09;149776.00;;;12.17;100.00
6837;BME280;3456;42.136;24.736;2023-10-19T21:50:38;149859.53;;;12.50;100.00
6837;BME280;3456;42.136;24.736;2023-10-19T21:53:07;149874.75;;;12.56;100.00
6837;BME280;3456;42.136;24.736;2023-10-19T21:55:38;149864.63;;;12.52;100.00
6837;BME280;3456;42.136;24.736;2023-10-19T21:58:08;149902.59;;;12.67;100.00
6837;BME280;3456;42.136;24.736;2023-10-19T22:00:35;149917.81;;;12.73;100.00
6837;BME280;3456;42.136;24.736;2023-10-19T22:03:04;149857.03;;;12.49;100.00
6837;BME280;3456;42.136;24.736;2023-10-19T22:05:33;149922.84;;;12.75;100.00
6837;BME280;3456;42.136;24.736;2023-10-19T22:08:02;149867.13;;;12.53;100.00
6837;BME280;3456;42.136;24.736;2023-10-19T22:10:31;149915.25;;;12.72;100.00
6837;BME280;3456;42.136;24.736;2023-10-19T22:13:03;149900.03;;;12.66;100.00
6837;BME280;3456;42.136;24.736;2023-10-19T22:15:32;149874.75;;;12.56;100.00
6837;BME280;3456;42.136;24.736;2023-10-19T22:18:03;149884.84;;;12.60;100.00
6837;BME280;3456;42.136;24.736;2023-10-19T22:20:34;149891.22;;;12.63;100.00
6837;BME280;3456;42.136;24.736;2023-10-19T22:23:03;149877.31;;;12.57;100.00
6837;BME280;3456;42.136;24.736;2023-10-19T22:25:32;149870.94;;;12.55;100.00
6837;BME280;3456;42.136;24.736;2023-10-19T22:28:04;149878.53;;;12.58;100.00
6837;BME280;3456;42.136;24.736;2023-10-19T22:30:33;149879.81;;;12.58;100.00
6837;BME280;3456;42.136;24.736;2023-10-19T22:33:04;149869.72;;;12.54;100.00
6837;BME280;3456;42.136;24.736;2023-10-19T22:35:35;149870.94;;;12.55;100.00
6837;BME280;3456;42.136;24.736;2023-10-19T22:38:04;149778.56;;;12.18;100.00
6837;BME280;3456;42.136;24.736;2023-10-19T22:40:33;149763.38;;;12.12;100.00
6837;BME280;3456;42.136;24.736;2023-10-19T22:43:05;149806.38;;;12.29;100.00
6837;BME280;3456;42.136;24.736;2023-10-19T22:45:35;149830.44;;;12.39;100.00
6837;BME280;3456;42.136;24.736;2023-10-19T22:48:05;149817.78;;;12.34;100.00
6837;BME280;3456;42.136;24.736;2023-10-19T22:50:34;149796.28;;;12.25;100.00
6837;BME280;3456;42.136;24.736;2023-10-19T22:53:03;149802.56;;;12.28;100.00
6837;BME280;3456;42.136;24.736;2023-10-19T22:55:32;149822.84;;;12.36;100.00
6837;BME280;3456;42.136;24.736;2023-10-19T22:58:04;149831.72;;;12.39;100.00
6837;BME280;3456;42.136;24.736;2023-10-19T23:00:33;149715.31;;;11.93;100.00
6837;BME280;3456;42.136;24.736;2023-10-19T23:03:01;149673.53;;;11.76;100.00
6837;BME280;3456;42.136;24.736;2023-10-19T23:05:32;149748.19;;;12.06;100.00
6837;BME280;3456;42.136;24.736;2023-10-19T23:08:02;149759.56;;;12.11;100.00
6837;BME280;3456;42.136;24.736;2023-10-19T23:10:32;149764.66;;;12.13;100.00
6837;BME280;3456;42.136;24.736;2023-10-19T23:13:04;149719.09;;;11.95;100.00
6837;BME280;3456;42.136;24.736;2023-10-19T23:15:36;149745.66;;;12.05;100.00
6837;BME280;3456;42.136;24.736;2023-10-19T23:18:06;149677.34;;;11.78;100.00
6837;BME280;3456;42.136;24.736;2023-10-19T23:20:36;149727.94;;;11.98;100.00
6837;BME280;3456;42.136;24.736;2023-10-19T23:23:05;149662.16;;;11.72;100.00
6837;BME280;3456;42.136;24.736;2023-10-19T23:25:36;149648.25;;;11.66;100.00
6837;BME280;3456;42.136;24.736;2023-10-19T23:28:12;149533.09;;;11.21;100.00
6837;BME280;3456;42.136;24.736;2023-10-19T23:30:41;149463.56;;;10.93;100.00
6837;BME280;3456;42.136;24.736;2023-10-19T23:33:11;149543.19;;;11.25;100.00
6837;BME280;3456;42.136;24.736;2023-10-19T23:35:40;149571.03;;;11.36;100.00
6837;BME280;3456;42.136;24.736;2023-10-19T23:38:08;149620.34;;;11.55;100.00
6837;BME280;3456;42.136;24.736;2023-10-19T23:40:38;149620.34;;;11.55;100.00
6837;BME280;3456;42.136;24.736;2023-10-19T23:43:07;149614.06;;;11.53;100.00
6837;BME280;3456;42.136;24.736;2023-10-19T23:45:39;149571.03;;;11.36;100.00
6837;BME280;3456;42.136;24.736;2023-10-19T23:48:08;149497.72;;;11.07;100.00
6837;BME280;3456;42.136;24.736;2023-10-19T23:50:38;149560.94;;;11.32;100.00
6837;BME280;3456;42.136;24.736;2023-10-19T23:53:07;149644.47;;;11.65;100.00
6837;BME280;3456;42.136;24.736;2023-10-19T23:55:36;149657.09;;;11.70;100.00
6837;BME280;3456;42.136;24.736;2023-10-19T23:58:06;149586.22;;;11.42;100.00
